Time;durP1;ratioP1;P1;durP2;ratioP2;P2;SDS_P1;SDS_P2;PMS_P1;PMS_P2;Temp;Humidity;BMP_temperature;BMP_pressure;BME280_temperature;BME280_humidity;BME280_pressure;Samples;Min_cycle;Max_cycle;Signal;HPM_P1;HPM_P2
2023/12/21 00:01:04;;;;;;;;;;;10.40;99.90;;;;;;5054549;28;19913;-79
2023/12/21 00:03:30;;;;;;;;;;;10.50;99.90;;;;;;5054719;28;19909;-79
2023/12/21 00:05:56;;;;;;;;;;;10.50;99.90;;;;;;5057052;28;19913;-79
2023/12/21 00:08:21;;;;;;;;;;;10.40;99.90;;;;;;5053137;28;19909;-79
2023/12/21 00:10:47;;;;;;;;;;;10.50;99.90;;;;;;5054171;28;20560;-79
2023/12/21 00:13:12;;;;;;;;;;;10.40;99.90;;;;;;5061015;28;19917;-79
2023/12/21 00:15:38;;;;;;;;;;;10.30;99.90;;;;;;5053858;28;20401;-79
2023/12/21 00:18:03;;;;;;;;;;;10.20;99.90;;;;;;5053409;28;19917;-79
2023/12/21 00:20:29;;;;;;;;;;;10.10;99.90;;;;;;5054047;28;19909;-79
2023/12/21 00:22:54;;;;;;;;;;;10.10;99.90;;;;;;5052958;28;19962;-79
2023/12/21 00:25:20;;;;;;;;;;;10.00;99.90;;;;;;5052779;28;20000;-79
2023/12/21 00:27:48;;;;;;;;;;;10.00;99.90;;;;;;5053005;28;20379;-79
2023/12/21 00:30:14;;;;;;;;;;;10.00;99.90;;;;;;5056887;28;20625;-79
2023/12/21 00:32:40;;;;;;;;;;;9.90;99.90;;;;;;5058752;28;19993;-79
2023/12/21 00:35:06;;;;;;;;;;;9.90;99.90;;;;;;5060084;28;19961;-79
2023/12/21 00:37:36;;;;;;;;;;;9.80;99.90;;;;;;5074998;28;19957;-79
2023/12/21 00:40:05;;;;;;;;;;;9.80;99.90;;;;;;5095406;28;20328;-79
2023/12/21 00:42:31;;;;;;;;;;;9.70;99.90;;;;;;5085999;28;19919;-79
2023/12/21 00:44:57;;;;;;;;;;;9.70;99.90;;;;;;5045323;28;20387;-79
2023/12/21 00:47:23;;;;;;;;;;;9.70;99.90;;;;;;5074317;28;19966;-79
2023/12/21 00:49:48;;;;;;;;;;;9.70;99.90;;;;;;5072914;28;20378;-79
2023/12/21 00:52:14;;;;;;;;;;;9.70;99.90;;;;;;5055400;28;19909;-79
2023/12/21 00:54:39;;;;;;;;;;;9.60;99.90;;;;;;5055315;28;20168;-79
2023/12/21 00:57:05;;;;;;;;;;;9.60;99.90;;;;;;5055781;28;20397;-79
2023/12/21 00:59:30;;;;;;;;;;;9.60;99.90;;;;;;5086127;28;19918;-79
2023/12/21 01:01:56;;;;;;;;;;;9.60;99.90;;;;;;5075271;28;19919;-79
2023/12/21 01:04:23;;;;;;;;;;;9.70;99.90;;;;;;5055641;28;19909;-79
2023/12/21 01:06:48;;;;;;;;;;;9.70;99.90;;;;;;5055712;28;19935;-79
2023/12/21 01:09:14;;;;;;;;;;;9.70;99.90;;;;;;5055176;28;19908;-79
2023/12/21 01:11:39;;;;;;;;;;;9.80;99.90;;;;;;5055605;28;19915;-79
2023/12/21 01:14:05;;;;;;;;;;;9.80;99.90;;;;;;5074074;28;19914;-79
2023/12/21 01:16:30;;;;;;;;;;;9.80;99.90;;;;;;5055592;28;19908;-79
2023/12/21 01:18:56;;;;;;;;;;;9.80;99.90;;;;;;5056266;28;19909;-79
2023/12/21 01:21:21;;;;;;;;;;;9.80;99.90;;;;;;5074093;28;19958;-79
2023/12/21 01:23:47;;;;;;;;;;;9.80;99.90;;;;;;5075461;28;20007;-79
2023/12/21 01:26:12;;;;;;;;;;;9.80;99.90;;;;;;5085983;28;19915;-79
2023/12/21 01:28:38;;;;;;;;;;;9.80;99.90;;;;;;5079591;28;19977;-79
2023/12/21 01:31:03;;;;;;;;;;;9.80;99.90;;;;;;5094854;28;19970;-79
2023/12/21 01:33:29;;;;;;;;;;;9.90;99.90;;;;;;5088806;28;19964;-79
2023/12/21 01:35:54;;;;;;;;;;;10.00;99.90;;;;;;5091990;28;20263;-79
2023/12/21 01:38:20;;;;;;;;;;;10.00;99.90;;;;;;5079196;28;19908;-79
2023/12/21 01:40:46;;;;;;;;;;;10.00;99.90;;;;;;5079111;28;20400;-79
2023/12/21 01:43:11;;;;;;;;;;;10.00;99.90;;;;;;5082711;28;19990;-79
2023/12/21 01:45:37;;;;;;;;;;;10.00;99.90;;;;;;5048656;28;19916;-79
2023/12/21 01:48:02;;;;;;;;;;;10.10;99.90;;;;;;5057288;28;19912;-79
2023/12/21 01:50:28;;;;;;;;;;;10.10;99.90;;;;;;5039142;28;19968;-79
2023/12/21 01:52:55;;;;;;;;;;;10.10;99.90;;;;;;5039306;28;19970;-79
2023/12/21 01:55:21;;;;;;;;;;;10.10;99.90;;;;;;5044044;28;20299;-79
2023/12/21 01:57:47;;;;;;;;;;;10.10;99.90;;;;;;5058845;28;19962;-79
2023/12/21 02:00:13;;;;;;;;;;;10.20;99.90;;;;;;5078486;28;19912;-79
2023/12/21 02:02:39;;;;;;;;;;;10.20;99.90;;;;;;5058948;28;19908;-79
2023/12/21 02:05:04;;;;;;;;;;;10.20;99.90;;;;;;5076303;28;20082;-78
2023/12/21 02:07:30;;;;;;;;;;;10.30;99.90;;;;;;5058846;28;19923;-79
2023/12/21 02:09:55;;;;;;;;;;;10.30;99.90;;;;;;5076467;28;19908;-79
2023/12/21 02:12:21;;;;;;;;;;;10.30;99.90;;;;;;5058780;28;19909;-79
2023/12/21 02:14:46;;;;;;;;;;;10.40;99.90;;;;;;5058842;28;19913;-79
2023/12/21 02:17:13;;;;;;;;;;;10.40;99.90;;;;;;5076581;28;20351;-79
2023/12/21 02:19:39;;;;;;;;;;;10.40;99.90;;;;;;5076913;28;20286;-79
2023/12/21 02:22:06;;;;;;;;;;;10.40;99.90;;;;;;5085406;28;19922;-79
2023/12/21 02:24:32;;;;;;;;;;;10.50;99.90;;;;;;5077754;28;19908;-79
2023/12/21 02:26:58;;;;;;;;;;;10.50;99.90;;;;;;5081407;28;19987;-79
2023/12/21 02:29:24;;;;;;;;;;;10.50;99.90;;;;;;5078647;28;19912;-79
2023/12/21 02:31:49;;;;;;;;;;;10.50;99.90;;;;;;5096259;28;20378;-79
2023/12/21 02:34:15;;;;;;;;;;;10.60;99.90;;;;;;5079292;28;19908;-79
2023/12/21 02:36:41;;;;;;;;;;;10.60;99.90;;;;;;5059743;28;19915;-79
2023/12/21 02:39:06;;;;;;;;;;;10.60;99.90;;;;;;5075612;28;19909;-79
2023/12/21 02:41:32;;;;;;;;;;;10.60;99.90;;;;;;5060208;28;19912;-79
2023/12/21 02:43:58;;;;;;;;;;;10.60;99.90;;;;;;5046228;28;19923;-79
2023/12/21 02:46:24;;;;;;;;;;;10.60;99.90;;;;;;5069600;28;19916;-79
2023/12/21 02:48:51;;;;;;;;;;;10.60;99.90;;;;;;5088380;28;19913;-79
2023/12/21 02:51:17;;;;;;;;;;;10.60;99.90;;;;;;5057957;28;19909;-79
2023/12/21 02:53:42;;;;;;;;;;;10.60;99.90;;;;;;5058099;28;20330;-79
2023/12/21 02:56:08;;;;;;;;;;;10.60;99.90;;;;;;5067620;28;19916;-79
2023/12/21 02:58:37;;;;;;;;;;;10.60;99.90;;;;;;5058174;28;19908;-79
2023/12/21 03:01:03;;;;;;;;;;;10.60;99.90;;;;;;5057694;28;20003;-79
2023/12/21 03:03:28;;;;;;;;;;;10.60;99.90;;;;;;5058442;28;19940;-79
2023/12/21 03:05:54;;;;;;;;;;;10.60;99.90;;;;;;5056686;28;19919;-79
2023/12/21 03:08:19;;;;;;;;;;;10.60;99.90;;;;;;5057586;28;19948;-79
2023/12/21 03:10:45;;;;;;;;;;;10.60;99.90;;;;;;5061462;28;19982;-79
2023/12/21 03:13:11;;;;;;;;;;;10.60;99.90;;;;;;5057628;28;19909;-79
2023/12/21 03:15:36;;;;;;;;;;;10.60;99.90;;;;;;5077722;28;20415;-79
2023/12/21 03:18:02;;;;;;;;;;;10.70;99.90;;;;;;5086376;28;19912;-79
2023/12/21 03:20:27;;;;;;;;;;;10.70;99.90;;;;;;5056695;28;20006;-79
2023/12/21 03:22:53;;;;;;;;;;;10.70;99.90;;;;;;5057343;28;20299;-79
2023/12/21 03:25:18;;;;;;;;;;;10.70;99.90;;;;;;5058345;28;19966;-79
2023/12/21 03:27:44;;;;;;;;;;;10.70;99.90;;;;;;5057429;28;19925;-79
2023/12/21 03:30:10;;;;;;;;;;;10.70;99.90;;;;;;5075701;28;20291;-79
2023/12/21 03:32:36;;;;;;;;;;;10.70;99.90;;;;;;5057217;28;19951;-79
2023/12/21 03:35:03;;;;;;;;;;;10.80;99.90;;;;;;5059721;28;19908;-79
2023/12/21 03:37:29;;;;;;;;;;;10.80;99.90;;;;;;5094929;28;20305;-79
2023/12/21 03:39:58;;;;;;;;;;;10.80;99.90;;;;;;5077098;28;20455;-79
2023/12/21 03:42:23;;;;;;;;;;;10.80;99.90;;;;;;5075432;28;19912;-79
2023/12/21 03:44:49;;;;;;;;;;;10.80;99.90;;;;;;5062657;28;19994;-79
2023/12/21 03:47:14;;;;;;;;;;;10.80;99.90;;;;;;5075183;28;20054;-79
2023/12/21 03:49:40;;;;;;;;;;;10.80;99.90;;;;;;5056117;28;19958;-79
2023/12/21 03:52:06;;;;;;;;;;;10.90;99.90;;;;;;5064618;28;19951;-79
2023/12/21 03:54:31;;;;;;;;;;;10.90;99.90;;;;;;5056747;28;19913;-79
2023/12/21 03:56:57;;;;;;;;;;;10.90;99.90;;;;;;5073887;28;20332;-79
2023/12/21 03:59:22;;;;;;;;;;;10.90;99.90;;;;;;5057480;28;19916;-79
2023/12/21 04:01:48;;;;;;;;;;;11.00;99.90;;;;;;5056534;28;19913;-79
2023/12/21 04:04:14;;;;;;;;;;;11.00;99.90;;;;;;5055843;28;20365;-79
2023/12/21 04:06:39;;;;;;;;;;;11.00;99.90;;;;;;5057135;28;20444;-79
2023/12/21 04:09:05;;;;;;;;;;;11.00;99.90;;;;;;5053518;28;19908;-79
2023/12/21 04:11:31;;;;;;;;;;;11.00;99.90;;;;;;5053388;28;20007;-79
2023/12/21 04:13:56;;;;;;;;;;;11.00;99.90;;;;;;5054778;28;19944;-79
2023/12/21 04:16:22;;;;;;;;;;;11.00;99.90;;;;;;5054613;28;19944;-79
2023/12/21 04:18:47;;;;;;;;;;;11.00;99.90;;;;;;5058064;28;19972;-79
2023/12/21 04:21:13;;;;;;;;;;;11.00;99.90;;;;;;5038363;28;20015;-79
2023/12/21 04:23:39;;;;;;;;;;;11.10;99.90;;;;;;5075974;28;19989;-79
2023/12/21 04:26:04;;;;;;;;;;;11.10;99.90;;;;;;5075960;28;19928;-79
2023/12/21 04:28:30;;;;;;;;;;;11.20;99.90;;;;;;5074115;28;19916;-79
2023/12/21 04:30:55;;;;;;;;;;;11.20;99.90;;;;;;5054280;28;19916;-79
2023/12/21 04:33:21;;;;;;;;;;;11.20;99.90;;;;;;5036401;28;19931;-79
2023/12/21 04:35:46;;;;;;;;;;;11.30;99.90;;;;;;5045859;28;19958;-79
2023/12/21 04:38:12;;;;;;;;;;;11.30;99.90;;;;;;5055842;28;19912;-79
2023/12/21 04:40:38;;;;;;;;;;;11.30;99.90;;;;;;5075893;28;19912;-79
2023/12/21 04:43:04;;;;;;;;;;;11.30;99.90;;;;;;5064816;28;20406;-79
2023/12/21 04:45:29;;;;;;;;;;;11.30;99.90;;;;;;5046941;28;19908;-79
2023/12/21 04:47:55;;;;;;;;;;;11.40;99.90;;;;;;5065802;28;20355;-79
2023/12/21 04:50:20;;;;;;;;;;;11.30;99.90;;;;;;5055829;28;20007;-79
2023/12/21 04:52:46;;;;;;;;;;;11.30;99.90;;;;;;5055755;28;19912;-79
2023/12/21 04:55:12;;;;;;;;;;;11.30;99.90;;;;;;5057492;28;19991;-78
2023/12/21 04:57:38;;;;;;;;;;;11.20;99.90;;;;;;5055728;28;19962;-79
2023/12/21 05:00:06;;;;;;;;;;;11.30;99.90;;;;;;5055753;28;19916;-79
2023/12/21 05:02:31;;;;;;;;;;;11.30;99.90;;;;;;5055695;28;20388;-79
2023/12/21 05:04:57;;;;;;;;;;;11.30;99.90;;;;;;5055710;28;19959;-78
2023/12/21 05:07:22;;;;;;;;;;;11.30;99.90;;;;;;5074011;28;19913;-81
2023/12/21 05:09:48;;;;;;;;;;;11.30;99.90;;;;;;5051994;28;19917;-79
2023/12/21 05:12:13;;;;;;;;;;;11.30;99.90;;;;;;5053751;28;20413;-79
2023/12/21 05:14:39;;;;;;;;;;;11.30;99.90;;;;;;5054408;28;19917;-79
2023/12/21 05:17:05;;;;;;;;;;;11.40;99.90;;;;;;5052465;28;20287;-79
2023/12/21 05:19:30;;;;;;;;;;;11.40;99.90;;;;;;5036091;28;20371;-80
2023/12/21 05:21:56;;;;;;;;;;;11.40;99.90;;;;;;5066763;28;19977;-79
2023/12/21 05:24:21;;;;;;;;;;;11.40;99.90;;;;;;5058040;28;19913;-79
2023/12/21 05:26:47;;;;;;;;;;;11.40;99.90;;;;;;5057453;28;19925;-79
2023/12/21 05:29:12;;;;;;;;;;;11.40;99.90;;;;;;5034784;28;19916;-79
2023/12/21 05:31:38;;;;;;;;;;;11.40;99.90;;;;;;5059564;28;19930;-79
2023/12/21 05:34:04;;;;;;;;;;;11.50;99.90;;;;;;5057458;28;19967;-79
2023/12/21 05:36:29;;;;;;;;;;;11.50;99.90;;;;;;5057172;28;19909;-79
2023/12/21 05:38:55;;;;;;;;;;;11.50;99.90;;;;;;5035093;28;19962;-79
2023/12/21 05:41:20;;;;;;;;;;;11.50;99.90;;;;;;5043258;28;19920;-79
2023/12/21 05:43:49;;;;;;;;;;;11.50;99.90;;;;;;5043402;28;19912;-79
2023/12/21 05:46:15;;;;;;;;;;;11.50;99.90;;;;;;5035238;28;19931;-79
2023/12/21 05:48:40;;;;;;;;;;;11.50;99.90;;;;;;5048608;28;20012;-79
2023/12/21 05:51:06;;;;;;;;;;;11.50;99.90;;;;;;5035282;28;19909;-79
2023/12/21 05:53:33;;;;;;;;;;;11.50;99.90;;;;;;5053057;28;20300;-79
2023/12/21 05:55:58;;;;;;;;;;;11.50;99.90;;;;;;5040673;28;19912;-79
2023/12/21 05:58:24;;;;;;;;;;;11.50;99.90;;;;;;5073051;28;19908;-79
2023/12/21 06:00:49;;;;;;;;;;;11.50;99.90;;;;;;5073024;28;19909;-79
2023/12/21 06:03:15;;;;;;;;;;;11.50;99.90;;;;;;5082757;28;19915;-79
2023/12/21 06:05:40;;;;;;;;;;;11.50;99.90;;;;;;5075191;28;19931;-79
2023/12/21 06:08:06;;;;;;;;;;;11.60;99.90;;;;;;5082749;28;19904;-79
2023/12/21 06:10:33;;;;;;;;;;;11.60;99.90;;;;;;5055105;28;20020;-79
2023/12/21 06:12:58;;;;;;;;;;;11.60;99.90;;;;;;5036986;28;19913;-79
2023/12/21 06:15:24;;;;;;;;;;;11.60;99.90;;;;;;5056968;28;20028;-79
2023/12/21 06:17:49;;;;;;;;;;;11.60;99.90;;;;;;5055645;28;19968;-79
2023/12/21 06:20:15;;;;;;;;;;;11.70;99.90;;;;;;5055336;28;19909;-79
2023/12/21 06:22:41;;;;;;;;;;;11.70;99.90;;;;;;5070592;28;19915;-79
2023/12/21 06:25:11;;;;;;;;;;;11.70;99.90;;;;;;5096604;28;19914;-80
2023/12/21 06:27:37;;;;;;;;;;;11.70;99.90;;;;;;5073311;28;20391;-79
2023/12/21 06:30:03;;;;;;;;;;;11.70;99.90;;;;;;5057469;28;19916;-79
2023/12/21 06:32:29;;;;;;;;;;;11.80;99.90;;;;;;5057803;28;19920;-80
2023/12/21 06:34:54;;;;;;;;;;;11.80;99.90;;;;;;5061005;28;19922;-79
2023/12/21 06:37:20;;;;;;;;;;;11.70;99.90;;;;;;5080365;28;20463;-79
2023/12/21 06:39:48;;;;;;;;;;;11.80;99.90;;;;;;5077682;28;20015;-79
2023/12/21 06:42:14;;;;;;;;;;;11.80;99.90;;;;;;5081380;28;20414;-79
2023/12/21 06:44:39;;;;;;;;;;;11.80;99.90;;;;;;5053561;28;19913;-79
2023/12/21 06:47:05;;;;;;;;;;;11.80;99.90;;;;;;5054483;28;19970;-79
2023/12/21 06:49:30;;;;;;;;;;;11.80;99.90;;;;;;5079530;28;20003;-79
2023/12/21 06:51:56;;;;;;;;;;;11.90;99.90;;;;;;5056182;28;19909;-81
2023/12/21 06:54:21;;;;;;;;;;;11.90;99.90;;;;;;5055003;28;19916;-79
2023/12/21 06:56:47;;;;;;;;;;;11.90;99.90;;;;;;5049234;28;19917;-80
2023/12/21 06:59:12;;;;;;;;;;;11.90;99.90;;;;;;5059613;28;20268;-80
2023/12/21 07:01:38;;;;;;;;;;;11.80;99.90;;;;;;5063812;28;20355;-79
2023/12/21 07:04:03;;;;;;;;;;;11.80;99.90;;;;;;5060323;28;19913;-79
2023/12/21 07:06:29;;;;;;;;;;;11.80;99.90;;;;;;5061688;28;19913;-79
2023/12/21 07:08:55;;;;;;;;;;;11.90;99.90;;;;;;5044425;28;20340;-79
2023/12/21 07:11:20;;;;;;;;;;;11.80;99.90;;;;;;5079580;28;19916;-79
2023/12/21 07:13:49;;;;;;;;;;;11.80;99.90;;;;;;5081937;28;20389;-79
2023/12/21 07:16:14;;;;;;;;;;;11.80;99.90;;;;;;5057128;28;19999;-80
2023/12/21 07:18:40;;;;;;;;;;;11.80;99.90;;;;;;5071837;28;20395;-79
2023/12/21 07:21:05;;;;;;;;;;;11.80;99.90;;;;;;5070811;28;20015;-80
2023/12/21 07:23:31;;;;;;;;;;;11.80;99.90;;;;;;5048753;28;19919;-80
2023/12/21 07:25:57;;;;;;;;;;;11.80;99.90;;;;;;5046129;28;20260;-78
2023/12/21 07:28:23;;;;;;;;;;;11.80;99.90;;;;;;5072673;28;19923;-79
2023/12/21 07:30:49;;;;;;;;;;;11.80;99.90;;;;;;5065959;28;19934;-80
2023/12/21 07:33:15;;;;;;;;;;;11.80;99.90;;;;;;5063009;28;20371;-78
2023/12/21 07:35:41;;;;;;;;;;;11.80;99.90;;;;;;5061080;28;19909;-78
2023/12/21 07:38:07;;;;;;;;;;;11.90;99.90;;;;;;5089203;28;19913;-80
2023/12/21 07:40:32;;;;;;;;;;;11.80;99.90;;;;;;5051535;28;19953;-79
2023/12/21 07:42:58;;;;;;;;;;;11.90;99.90;;;;;;5053533;28;20011;-79
2023/12/21 07:45:23;;;;;;;;;;;11.80;99.90;;;;;;5049139;28;19912;-80
2023/12/21 07:47:49;;;;;;;;;;;11.80;99.90;;;;;;5051031;28;19923;-81
2023/12/21 07:50:14;;;;;;;;;;;11.80;99.90;;;;;;5042443;28;20004;-80
2023/12/21 07:52:40;;;;;;;;;;;11.80;99.90;;;;;;5047521;28;19996;-80
2023/12/21 07:55:06;;;;;;;;;;;11.80;99.90;;;;;;5045072;28;20299;-79
2023/12/21 07:57:32;;;;;;;;;;;11.80;99.90;;;;;;5054391;28;19912;-82
2023/12/21 07:59:57;;;;;;;;;;;11.80;99.90;;;;;;5062363;28;19912;-80
2023/12/21 08:02:23;;;;;;;;;;;11.80;99.90;;;;;;5066640;28;19920;-82
2023/12/21 08:04:49;;;;;;;;;;;11.80;99.90;;;;;;5051301;28;19928;-80
2023/12/21 08:07:15;;;;;;;;;;;11.80;99.90;;;;;;5069940;28;19916;-79
2023/12/21 08:09:41;;;;;;;;;;;11.80;99.90;;;;;;5046652;28;19913;-80
2023/12/21 08:12:08;;;;;;;;;;;11.80;99.90;;;;;;5062770;28;19912;-78
2023/12/21 08:14:36;;;;;;;;;;;11.80;99.90;;;;;;5068612;28;20298;-79
2023/12/21 08:17:06;;;;;;;;;;;11.80;99.90;;;;;;5064081;28;20345;-80
2023/12/21 08:19:32;;;;;;;;;;;11.80;99.90;;;;;;5068169;28;19912;-80
2023/12/21 08:21:58;;;;;;;;;;;11.90;99.90;;;;;;5067642;28;19920;-81
2023/12/21 08:24:23;;;;;;;;;;;11.90;99.90;;;;;;5063522;28;19916;-81
2023/12/21 08:26:49;;;;;;;;;;;11.90;99.90;;;;;;5042609;28;20278;-80
2023/12/21 08:29:14;;;;;;;;;;;11.90;99.90;;;;;;5054680;28;19921;-81
2023/12/21 08:31:40;;;;;;;;;;;12.00;99.90;;;;;;5046438;28;19925;-81
2023/12/21 08:34:05;;;;;;;;;;;12.00;99.90;;;;;;5045783;28;20694;-82
2023/12/21 08:36:31;;;;;;;;;;;11.90;99.90;;;;;;5023641;28;20284;-79
2023/12/21 08:38:57;;;;;;;;;;;11.90;99.90;;;;;;5023506;28;19952;-80
2023/12/21 08:41:24;;;;;;;;;;;11.90;99.90;;;;;;5044041;28;20384;-79
2023/12/21 08:43:50;;;;;;;;;;;11.90;99.90;;;;;;5026787;28;19919;-80
2023/12/21 08:46:15;;;;;;;;;;;11.90;99.90;;;;;;5026685;28;20430;-81
2023/12/21 08:48:41;;;;;;;;;;;11.90;99.90;;;;;;5029382;28;19959;-80
2023/12/21 08:51:06;;;;;;;;;;;11.90;99.90;;;;;;5046721;28;20003;-79
2023/12/21 08:53:32;;;;;;;;;;;11.90;99.90;;;;;;5046141;28;20383;-81
2023/12/21 08:55:58;;;;;;;;;;;11.90;99.90;;;;;;5040094;28;20444;-81
2023/12/21 08:58:24;;;;;;;;;;;12.00;99.90;;;;;;5032310;28;19916;-81
2023/12/21 09:00:49;;;;;;;;;;;12.00;99.90;;;;;;5046030;28;19948;-79
2023/12/21 09:03:15;;;;;;;;;;;12.00;99.90;;;;;;5049174;28;19921;-81
2023/12/21 09:05:40;;;;;;;;;;;12.10;99.90;;;;;;5049097;28;20451;-81
2023/12/21 09:08:06;;;;;;;;;;;12.10;99.90;;;;;;5041240;28;19917;-80
2023/12/21 09:10:31;;;;;;;;;;;12.20;99.90;;;;;;5045877;28;19920;-80
2023/12/21 09:12:57;;;;;;;;;;;12.20;99.90;;;;;;5033596;28;19909;-81
2023/12/21 09:15:24;;;;;;;;;;;12.30;99.90;;;;;;5050470;28;19921;-81
2023/12/21 09:17:49;;;;;;;;;;;12.30;99.90;;;;;;5028911;28;19917;-81
2023/12/21 09:20:14;;;;;;;;;;;12.30;99.90;;;;;;5036801;28;19917;-79
2023/12/21 09:22:40;;;;;;;;;;;12.30;99.90;;;;;;5053653;28;20299;-79
2023/12/21 09:25:06;;;;;;;;;;;12.40;99.90;;;;;;5050949;28;19920;-79
2023/12/21 09:27:32;;;;;;;;;;;12.40;99.90;;;;;;5046791;28;19925;-80
2023/12/21 09:29:58;;;;;;;;;;;12.40;99.90;;;;;;5053333;28;20290;-80
2023/12/21 09:32:23;;;;;;;;;;;12.40;99.90;;;;;;5050539;28;19912;-79
2023/12/21 09:34:49;;;;;;;;;;;12.40;99.90;;;;;;5071529;28;19916;-80
2023/12/21 09:37:14;;;;;;;;;;;12.40;99.90;;;;;;5042709;28;19924;-84
2023/12/21 09:39:40;;;;;;;;;;;12.40;99.90;;;;;;5062364;28;19916;-80
2023/12/21 09:42:06;;;;;;;;;;;12.50;99.90;;;;;;5044035;28;19917;-79
2023/12/21 09:44:32;;;;;;;;;;;12.50;99.90;;;;;;5062136;28;19963;-80
2023/12/21 09:46:58;;;;;;;;;;;12.50;99.90;;;;;;5051148;28;20379;-81
2023/12/21 09:49:23;;;;;;;;;;;12.50;99.90;;;;;;5043877;28;19917;-81
2023/12/21 09:51:49;;;;;;;;;;;12.50;99.90;;;;;;5047018;28;19917;-80
2023/12/21 09:54:16;;;;;;;;;;;12.50;99.90;;;;;;5071071;28;19916;-81
2023/12/21 09:56:43;;;;;;;;;;;12.60;99.90;;;;;;5046619;28;20022;-80
2023/12/21 09:59:10;;;;;;;;;;;12.50;99.90;;;;;;5066980;28;19917;-80
2023/12/21 10:01:36;;;;;;;;;;;12.40;99.90;;;;;;5055396;28;20450;-81
2023/12/21 10:04:01;;;;;;;;;;;12.40;99.90;;;;;;5067707;28;19959;-81
2023/12/21 10:06:27;;;;;;;;;;;12.40;99.90;;;;;;5053413;28;19931;-81
2023/12/21 10:08:52;;;;;;;;;;;12.40;99.90;;;;;;5052028;28;19943;-81
2023/12/21 10:11:19;;;;;;;;;;;12.50;99.90;;;;;;5049076;28;19927;-80
2023/12/21 10:13:48;;;;;;;;;;;12.50;99.90;;;;;;5072917;28;19912;-79
2023/12/21 10:16:14;;;;;;;;;;;12.50;99.90;;;;;;5047904;28;19927;-81
2023/12/21 10:18:40;;;;;;;;;;;12.50;99.90;;;;;;5056545;28;19966;-81
2023/12/21 10:21:08;;;;;;;;;;;12.50;99.90;;;;;;5066565;28;20416;-79
2023/12/21 10:23:33;;;;;;;;;;;12.50;99.90;;;;;;5054360;28;19913;-82
2023/12/21 10:25:59;;;;;;;;;;;12.50;99.90;;;;;;5062755;28;19921;-82
2023/12/21 10:28:24;;;;;;;;;;;12.60;99.90;;;;;;5074657;28;19991;-80
2023/12/21 10:30:53;;;;;;;;;;;12.60;99.90;;;;;;5063016;28;20058;-78
2023/12/21 10:33:19;;;;;;;;;;;12.60;99.90;;;;;;5039913;28;20454;-80
2023/12/21 10:35:44;;;;;;;;;;;12.70;99.90;;;;;;5036779;28;19967;-80
2023/12/21 10:38:10;;;;;;;;;;;12.70;99.90;;;;;;5047559;28;19958;-83
2023/12/21 10:40:35;;;;;;;;;;;12.70;99.90;;;;;;5053329;28;19917;-80
2023/12/21 10:43:01;;;;;;;;;;;12.70;99.90;;;;;;5037790;28;19921;-81
2023/12/21 10:45:27;;;;;;;;;;;12.80;99.90;;;;;;5034177;28;19912;-79
2023/12/21 10:47:53;;;;;;;;;;;12.80;99.90;;;;;;5050708;28;19917;-80
2023/12/21 10:50:19;;;;;;;;;;;12.70;99.90;;;;;;5019256;28;19920;-80
2023/12/21 10:52:46;;;;;;;;;;;12.60;99.90;;;;;;5048000;28;19919;-79
2023/12/21 10:55:14;;;;;;;;;;;12.50;99.90;;;;;;5040674;28;19916;-83
2023/12/21 10:57:43;;;;;;;;;;;12.50;99.90;;;;;;5051540;28;19923;-79
2023/12/21 11:00:13;;;;;;;;;;;12.50;99.90;;;;;;5029197;28;19920;-81
2023/12/21 11:02:41;;;;;;;;;;;12.50;99.90;;;;;;5029957;28;20161;-80
2023/12/21 11:05:07;;;;;;;;;;;12.40;99.90;;;;;;5029800;28;20031;-80
2023/12/21 11:07:33;;;;;;;;;;;12.50;99.90;;;;;;5043605;28;19944;-79
2023/12/21 11:10:00;;;;;;;;;;;12.40;99.90;;;;;;5027642;28;20370;-80
2023/12/21 11:12:25;;;;;;;;;;;12.40;99.90;;;;;;5025294;28;19963;-79
2023/12/21 11:14:51;;;;;;;;;;;12.40;99.90;;;;;;5025273;28;19952;-84
2023/12/21 11:17:17;;;;;;;;;;;12.40;99.90;;;;;;5045915;28;19968;-79
2023/12/21 11:19:43;;;;;;;;;;;12.40;99.90;;;;;;5051538;28;19920;-79
2023/12/21 11:22:08;;;;;;;;;;;12.40;99.90;;;;;;5041049;28;20695;-79
2023/12/21 11:24:34;;;;;;;;;;;12.60;99.90;;;;;;5034928;28;19916;-81
2023/12/21 11:27:01;;;;;;;;;;;12.60;99.90;;;;;;5018952;28;19925;-79
2023/12/21 11:29:28;;;;;;;;;;;12.50;99.90;;;;;;5027813;28;19921;-79
2023/12/21 11:31:54;;;;;;;;;;;12.50;99.90;;;;;;5027509;28;19924;-79
2023/12/21 11:34:24;;;;;;;;;;;12.50;99.90;;;;;;5043847;28;19959;-78
2023/12/21 11:36:50;;;;;;;;;;;12.50;99.90;;;;;;5045355;28;20074;-78
2023/12/21 11:39:18;;;;;;;;;;;12.60;99.90;;;;;;5047219;28;20003;-81
2023/12/21 11:41:59;;;;;;;;;;;12.70;99.90;;;;;;5044340;28;19917;-82
2023/12/21 11:44:37;;;;;;;;;;;12.60;99.90;;;;;;5048431;28;19956;-83
2023/12/21 11:47:06;;;;;;;;;;;12.60;99.90;;;;;;5043429;28;20291;-82
2023/12/21 11:49:32;;;;;;;;;;;12.60;99.90;;;;;;5047444;28;19913;-78
2023/12/21 11:51:58;;;;;;;;;;;12.70;99.90;;;;;;5047464;28;20307;-80
2023/12/21 11:54:25;;;;;;;;;;;12.70;99.90;;;;;;5043977;28;19924;-78
2023/12/21 11:56:51;;;;;;;;;;;12.60;99.90;;;;;;5039430;28;20753;-79
2023/12/21 11:59:16;;;;;;;;;;;12.60;99.90;;;;;;5035216;28;19951;-78
2023/12/21 12:01:44;;;;;;;;;;;12.60;99.90;;;;;;5035042;28;19971;-78
2023/12/21 12:04:16;;;;;;;;;;;12.70;99.90;;;;;;5037868;28;19983;-80
2023/12/21 12:06:43;;;;;;;;;;;12.60;99.90;;;;;;5041915;28;19927;-79
2023/12/21 12:09:08;;;;;;;;;;;12.50;99.90;;;;;;5035123;28;19952;-80
2023/12/21 12:11:34;;;;;;;;;;;12.50;99.90;;;;;;5036820;28;19917;-78
2023/12/21 12:14:00;;;;;;;;;;;12.50;99.90;;;;;;5039688;28;19913;-78
2023/12/21 12:16:25;;;;;;;;;;;12.40;99.90;;;;;;5034633;28;19917;-78
2023/12/21 12:18:52;;;;;;;;;;;12.40;99.90;;;;;;5034065;28;19968;-80
2023/12/21 12:21:17;;;;;;;;;;;12.50;99.90;;;;;;5050815;28;19921;-78
2023/12/21 12:23:46;;;;;;;;;;;12.50;99.90;;;;;;5045658;28;19923;-82
2023/12/21 12:26:15;;;;;;;;;;;12.60;99.90;;;;;;5049633;28;20340;-79
2023/12/21 12:28:41;;;;;;;;;;;12.70;99.90;;;;;;5050585;28;19917;-79
2023/12/21 12:31:06;;;;;;;;;;;12.80;99.90;;;;;;5042201;28;20394;-78
2023/12/21 12:33:33;;;;;;;;;;;12.80;99.90;;;;;;5045953;28;19924;-79
2023/12/21 12:36:03;;;;;;;;;;;12.80;99.90;;;;;;5043024;28;19917;-79
2023/12/21 12:38:29;;;;;;;;;;;13.00;99.90;;;;;;5049314;28;19927;-81
2023/12/21 12:40:54;;;;;;;;;;;12.90;99.90;;;;;;5042658;28;20284;-81
2023/12/21 12:43:20;;;;;;;;;;;12.60;99.90;;;;;;5036447;28;19917;-78
2023/12/21 12:45:45;;;;;;;;;;;12.60;99.90;;;;;;5050380;28;19913;-82
2023/12/21 12:48:12;;;;;;;;;;;12.40;99.90;;;;;;5039100;28;19913;-79
2023/12/21 12:50:38;;;;;;;;;;;12.60;99.90;;;;;;5042503;28;20010;-82
2023/12/21 12:53:03;;;;;;;;;;;12.60;99.90;;;;;;5045341;28;20396;-78
2023/12/21 12:55:29;;;;;;;;;;;12.50;99.90;;;;;;5041797;28;20031;-82
2023/12/21 12:57:55;;;;;;;;;;;12.40;99.90;;;;;;5042382;28;19931;-78
2023/12/21 13:00:21;;;;;;;;;;;12.40;99.90;;;;;;5048776;28;20397;-80
2023/12/21 13:02:47;;;;;;;;;;;12.30;99.90;;;;;;5040179;28;19913;-80
2023/12/21 13:05:14;;;;;;;;;;;12.30;99.90;;;;;;5036375;28;20291;-79
2023/12/21 13:07:42;;;;;;;;;;;12.30;99.90;;;;;;5048821;28;19924;-82
2023/12/21 13:10:09;;;;;;;;;;;12.40;99.90;;;;;;5039233;28;19921;-78
2023/12/21 13:12:35;;;;;;;;;;;12.50;99.90;;;;;;5051561;28;20431;-80
2023/12/21 13:15:00;;;;;;;;;;;12.40;99.90;;;;;;5034056;28;19913;-80
2023/12/21 13:17:26;;;;;;;;;;;12.30;99.90;;;;;;5046466;28;19912;-78
2023/12/21 13:19:51;;;;;;;;;;;12.40;99.90;;;;;;5048990;28;19920;-79
2023/12/21 13:22:17;;;;;;;;;;;12.60;99.90;;;;;;5048599;28;20291;-81
2023/12/21 13:24:42;;;;;;;;;;;12.70;99.90;;;;;;5051194;28;19917;-81
2023/12/21 13:27:08;;;;;;;;;;;12.80;99.90;;;;;;5042180;28;20036;-78
2023/12/21 13:29:33;;;;;;;;;;;12.80;99.90;;;;;;5050470;28;19916;-81
2023/12/21 13:32:00;;;;;;;;;;;12.70;99.90;;;;;;5038577;28;19921;-78
2023/12/21 13:34:26;;;;;;;;;;;12.70;99.90;;;;;;5044553;28;19918;-81
2023/12/21 13:36:53;;;;;;;;;;;12.60;99.90;;;;;;5052051;28;19913;-78
2023/12/21 13:39:19;;;;;;;;;;;12.60;99.90;;;;;;5070055;28;19927;-79
2023/12/21 13:41:44;;;;;;;;;;;12.70;99.90;;;;;;5045791;28;19917;-81
2023/12/21 13:44:10;;;;;;;;;;;12.70;99.90;;;;;;5044887;28;19917;-78
2023/12/21 13:46:35;;;;;;;;;;;12.60;99.90;;;;;;5065904;28;20302;-82
2023/12/21 13:49:01;;;;;;;;;;;12.60;99.90;;;;;;5043743;28;19955;-78
2023/12/21 13:51:27;;;;;;;;;;;12.60;99.90;;;;;;5069632;28;19923;-82
2023/12/21 13:53:53;;;;;;;;;;;12.60;99.90;;;;;;5043252;28;19916;-78
2023/12/21 13:56:19;;;;;;;;;;;12.50;99.90;;;;;;5057509;28;20477;-80
2023/12/21 13:58:44;;;;;;;;;;;12.50;99.90;;;;;;5073780;28;19913;-79
2023/12/21 14:01:10;;;;;;;;;;;12.50;99.90;;;;;;5063520;28;19912;-80
2023/12/21 14:03:35;;;;;;;;;;;12.60;99.90;;;;;;5067934;28;19912;-81
2023/12/21 14:06:01;;;;;;;;;;;12.60;99.90;;;;;;5074272;28;20009;-80
2023/12/21 14:08:26;;;;;;;;;;;12.60;99.90;;;;;;5047395;28;19927;-82
2023/12/21 14:10:52;;;;;;;;;;;12.60;99.90;;;;;;5054029;28;19912;-79